createdAt,value
2018-09-11T00:02:15.977Z,102032.04
2018-09-11T00:04:56.529Z,102022.77
2018-09-11T00:07:32.837Z,102028.55
2018-09-11T00:10:11.590Z,102032.06
2018-09-11T00:12:48.994Z,102019.27
2018-09-11T00:15:26.948Z,102019.27
2018-09-11T00:18:05.777Z,102019.70
2018-09-11T00:20:43.926Z,102016.60
2018-09-11T00:23:23.110Z,102016.58
2018-09-11T00:26:02.043Z,102013.87
2018-09-11T00:28:41.791Z,102010.31
2018-09-11T00:31:21.460Z,102008.12
2018-09-11T00:34:02.536Z,102014.71
2018-09-11T00:36:41.063Z,102008.96
2018-09-11T00:39:19.556Z,101998.37
2018-09-11T00:41:59.284Z,102005.41
2018-09-11T00:44:31.673Z,102002.31
2018-09-11T00:47:01.065Z,102005.38
2018-09-11T00:49:30.542Z,101990.81
2018-09-11T00:52:00.130Z,101991.68
2018-09-11T00:54:29.382Z,101989.91
2018-09-11T00:56:59.310Z,101996.98
2018-09-11T00:59:28.938Z,101986.80
2018-09-11T01:01:58.354Z,101982.83
2018-09-11T01:04:27.845Z,101983.73
2018-09-11T01:06:57.419Z,101979.30
2018-09-11T01:09:26.912Z,101978.44
2018-09-11T01:11:56.333Z,101993.45
2018-09-11T01:14:25.788Z,101991.68
2018-09-11T01:16:55.177Z,101986.41
2018-09-11T01:19:24.568Z,101993.48
2018-09-11T01:21:54.012Z,101989.94
2018-09-11T01:24:23.383Z,101996.04
2018-09-11T01:26:52.724Z,101986.38
2018-09-11T01:29:22.079Z,101989.91
2018-09-11T01:31:51.489Z,101988.61
2018-09-11T01:34:20.826Z,101994.78
2018-09-11T01:36:50.258Z,102004.51
2018-09-11T01:39:19.634Z,102004.96
2018-09-11T01:41:49.142Z,101996.56
2018-09-11T01:44:18.570Z,102000.98
2018-09-11T01:46:47.922Z,102001.44
2018-09-11T01:49:17.337Z,102002.31
2018-09-11T01:51:46.700Z,101993.04
2018-09-11T01:54:16.655Z,101997.02
2018-09-11T01:56:46.352Z,102001.86
2018-09-11T01:59:15.729Z,102005.83
2018-09-11T02:01:45.096Z,101999.20
2018-09-11T02:04:14.497Z,102003.63
2018-09-11T02:06:43.883Z,101993.48
2018-09-11T02:09:13.724Z,101995.72
2018-09-11T02:11:43.204Z,101989.09
2018-09-11T02:14:12.546Z,101983.80
2018-09-11T02:16:41.975Z,101973.63
2018-09-11T02:19:11.310Z,101973.17
2018-09-11T02:21:41.721Z,101969.23
2018-09-11T02:24:11.105Z,101965.26
2018-09-11T02:26:40.675Z,101957.77
2018-09-11T02:29:10.076Z,101966.16
2018-09-11T02:31:40.153Z,101956.89
2018-09-11T02:34:09.920Z,101958.67
2018-09-11T02:36:39.291Z,101956.50
2018-09-11T02:39:11.149Z,101953.86
2018-09-11T02:41:40.542Z,101948.14
2018-09-11T02:44:10.748Z,101951.23
2018-09-11T02:46:40.317Z,101944.63
2018-09-11T02:49:09.756Z,101941.97
2018-09-11T02:51:39.958Z,101937.58
2018-09-11T02:54:10.198Z,101926.12
2018-09-11T02:56:39.548Z,101917.30
2018-09-11T02:59:09.663Z,101924.80
2018-09-11T03:01:39.103Z,101927.02
2018-09-11T03:04:08.783Z,101914.23
2018-09-11T03:06:38.215Z,101914.72
2018-09-11T03:09:07.696Z,101916.49
2018-09-11T03:11:37.280Z,101908.09
2018-09-11T03:14:06.766Z,101893.12
2018-09-11T03:16:36.088Z,101905.48
2018-09-11T03:19:06.209Z,101905.48
2018-09-11T03:21:35.655Z,101903.70
2018-09-11T03:24:11.082Z,101900.19
2018-09-11T03:26:40.712Z,101905.97
2018-09-11T03:29:10.071Z,101909.48
2018-09-11T03:31:39.503Z,101911.26
2018-09-11T03:34:08.924Z,101915.69
2018-09-11T03:36:39.315Z,101909.94
2018-09-11T03:39:10.035Z,101908.61
2018-09-11T03:41:39.457Z,101902.02
2018-09-11T03:44:08.989Z,101897.18
2018-09-11T03:46:38.349Z,101894.53
2018-09-11T03:49:07.695Z,101887.47
2018-09-11T03:51:37.074Z,101889.69
2018-09-11T03:54:06.517Z,101879.11
2018-09-11T03:56:42.101Z,101872.03
2018-09-11T03:59:11.519Z,101865.42
2018-09-11T04:01:40.886Z,101860.13
2018-09-11T04:04:10.283Z,101855.70
2018-09-11T04:06:39.723Z,101847.31
2018-09-11T04:09:11.465Z,101849.50
2018-09-11T04:11:41.474Z,101842.89
2018-09-11T04:14:11.933Z,101830.07
2018-09-11T04:16:41.346Z,101834.49
2018-09-11T04:19:10.725Z,101831.39
2018-09-11T04:21:40.158Z,101849.47
2018-09-11T04:24:10.395Z,101834.91
2018-09-11T04:26:39.768Z,101844.63
2018-09-11T04:29:09.391Z,101837.56
2018-09-11T04:31:38.782Z,101833.17
2018-09-11T04:34:08.603Z,101838.46
2018-09-11T04:36:37.972Z,101830.07
2018-09-11T04:39:09.321Z,101829.20
2018-09-11T04:41:38.701Z,101826.55
2018-09-11T04:44:08.073Z,101834.04
2018-09-11T04:46:38.817Z,101832.68
2018-09-11T04:49:08.149Z,101839.75
2018-09-11T04:51:38.326Z,101847.70
2018-09-11T04:54:07.735Z,101848.11
2018-09-11T04:56:37.074Z,101856.51
2018-09-11T04:59:06.486Z,101854.31
2018-09-11T05:01:35.941Z,101841.95
2018-09-11T05:04:06.682Z,101836.23
2018-09-11T05:06:36.100Z,101823.45
2018-09-11T05:09:09.398Z,101832.30
2018-09-11T05:11:38.771Z,101827.91
2018-09-11T05:14:08.701Z,101833.66
2018-09-11T05:16:38.140Z,101828.36
2018-09-11T05:19:08.386Z,101828.36
2018-09-11T05:21:37.814Z,101820.88
2018-09-11T05:24:07.330Z,101832.78
2018-09-11T05:26:36.754Z,101840.28
2018-09-11T05:29:06.536Z,101838.50
2018-09-11T05:31:35.950Z,101839.34
2018-09-11T05:34:06.020Z,101830.94
2018-09-11T05:36:35.382Z,101826.52
2018-09-11T05:39:08.756Z,101814.60
2018-09-11T05:41:38.902Z,101803.98
2018-09-11T05:44:08.471Z,101807.48
2018-09-11T05:46:37.887Z,101812.75
2018-09-11T05:49:07.298Z,101814.48
2018-09-11T05:51:36.721Z,101810.06
2018-09-11T05:54:06.507Z,101815.77
2018-09-11T05:56:35.872Z,101820.16
2018-09-11T05:59:06.184Z,101814.86
2018-09-11T06:01:35.561Z,101809.10
2018-09-11T06:04:06.334Z,101801.12
2018-09-11T06:06:35.709Z,101815.64
2018-09-11T06:09:10.271Z,101815.55
2018-09-11T06:11:39.699Z,101831.34
2018-09-11T06:14:10.070Z,101827.33
2018-09-11T06:16:39.418Z,101832.02
2018-09-11T06:19:08.807Z,101842.52
2018-09-11T06:21:38.713Z,101832.70
2018-09-11T06:24:08.132Z,101830.01
2018-09-11T06:26:37.482Z,101818.93
2018-09-11T06:29:06.919Z,101821.47
2018-09-11T06:31:37.004Z,101831.09
2018-09-11T06:34:06.901Z,101834.09
2018-09-11T06:36:37.145Z,101842.37
2018-09-11T06:39:09.344Z,101830.70
2018-09-11T06:41:39.887Z,101842.44
2018-09-11T06:44:09.329Z,101822.48
2018-09-11T06:46:39.229Z,101826.83
2018-09-11T06:49:08.702Z,101809.92
2018-09-11T06:51:38.095Z,101811.60
2018-09-11T06:54:07.568Z,101814.18
2018-09-11T06:56:36.913Z,101812.47
2018-09-11T06:59:06.779Z,101814.24
2018-09-11T07:01:36.134Z,101797.78
2018-09-11T07:04:07.108Z,101810.45
2018-09-11T07:06:36.485Z,101805.02
2018-09-11T07:09:09.674Z,101801.73
2018-09-11T07:11:39.126Z,101805.55
2018-09-11T07:14:08.403Z,101805.95
2018-09-11T07:16:37.755Z,101802.36
2018-09-11T07:19:07.150Z,101802.71
2018-09-11T07:21:36.799Z,101812.41
2018-09-11T07:24:06.442Z,101804.91
2018-09-11T07:26:35.909Z,101815.87
2018-09-11T07:29:06.575Z,101818.81
2018-09-11T07:31:36.520Z,101808.85
2018-09-11T07:34:06.585Z,101801.20
2018-09-11T07:36:35.983Z,101807.36
2018-09-11T07:39:08.320Z,101812.58
2018-09-11T07:41:37.741Z,101829.20
2018-09-11T07:44:07.141Z,101824.52
2018-09-11T07:46:36.582Z,101831.83
2018-09-11T07:49:06.911Z,101832.49
2018-09-11T07:51:36.306Z,101824.77
2018-09-11T07:54:06.488Z,101825.88
2018-09-11T07:56:35.907Z,101833.21
2018-09-11T07:59:07.866Z,101832.21
2018-09-11T08:01:37.258Z,101841.45
2018-09-11T08:04:07.269Z,101851.19
2018-09-11T08:06:36.634Z,101850.67
2018-09-11T08:09:12.075Z,101861.27
2018-09-11T08:11:41.478Z,101857.50
2018-09-11T08:14:11.012Z,101858.12
2018-09-11T08:16:40.396Z,101870.32
2018-09-11T08:19:09.790Z,101896.66
2018-09-11T08:21:39.199Z,101874.50
2018-09-11T08:24:08.586Z,101866.70
2018-09-11T08:26:37.958Z,101871.19
2018-09-11T08:29:07.341Z,101874.45
2018-09-11T08:31:38.938Z,101872.41
2018-09-11T08:34:08.349Z,101868.55
2018-09-11T08:36:39.473Z,101865.38
2018-09-11T08:39:10.430Z,101866.19
2018-09-11T08:41:39.820Z,101876.36
2018-09-11T08:44:09.354Z,101878.09
2018-09-11T08:46:39.392Z,101876.36
2018-09-11T08:49:09.361Z,101869.39
2018-09-11T08:51:38.802Z,101872.14
2018-09-11T08:54:08.196Z,101871.46
2018-09-11T08:56:37.557Z,101857.92
2018-09-11T08:59:06.897Z,101854.86
2018-09-11T09:01:36.267Z,101850.27
2018-09-11T09:04:06.707Z,101844.45
2018-09-11T09:06:36.130Z,101852.60
2018-09-11T09:09:11.154Z,101852.88
2018-09-11T09:11:41.027Z,101848.69
2018-09-11T09:14:10.371Z,101858.98
2018-09-11T09:16:39.802Z,101857.78
2018-09-11T09:19:09.203Z,101860.11
2018-09-11T09:21:38.589Z,101845.03
2018-09-11T09:24:08.089Z,101848.78
2018-09-11T09:26:37.508Z,101864.77
2018-09-11T09:29:06.930Z,101869.84
2018-09-11T09:31:36.328Z,101869.95
2018-09-11T09:34:06.945Z,101886.92
2018-09-11T09:36:37.143Z,101870.94
2018-09-11T09:39:08.386Z,101869.70
2018-09-11T09:41:37.788Z,101882.35
2018-09-11T09:44:07.297Z,101879.95
2018-09-11T09:46:36.756Z,101879.98
2018-09-11T09:49:06.487Z,101876.17
2018-09-11T09:51:36.411Z,101886.22
2018-09-11T09:54:06.311Z,101863.42
2018-09-11T09:56:35.823Z,101875.38
2018-09-11T09:59:06.510Z,101871.39
2018-09-11T10:03:47.245Z,101863.52
2018-09-11T10:06:17.362Z,101874.89
2018-09-11T10:08:46.738Z,101871.19
2018-09-11T10:11:16.145Z,101866.51
2018-09-11T10:13:45.562Z,101857.47
2018-09-11T10:16:14.932Z,101872.75
2018-09-11T10:18:44.370Z,101888.05
2018-09-11T10:21:13.777Z,101876.34
2018-09-11T10:23:43.282Z,101889.05
2018-09-11T10:26:13.662Z,101882.66
2018-09-11T10:28:43.078Z,101878.72
2018-09-11T10:31:12.522Z,101865.48
2018-09-11T10:33:42.162Z,101864.98
2018-09-11T10:36:12.132Z,101863.24
2018-09-11T10:38:42.138Z,101864.98
2018-09-11T10:41:11.578Z,101865.80
2018-09-11T10:43:40.992Z,101858.62
2018-09-11T10:46:10.473Z,101852.27
2018-09-11T10:48:39.948Z,101858.23
2018-09-11T10:51:09.313Z,101861.44
2018-09-11T10:53:38.724Z,101856.42
2018-09-11T10:56:08.351Z,101859.89
2018-09-11T10:58:39.923Z,101881.66
2018-09-11T11:01:09.413Z,101885.41
2018-09-11T11:03:38.822Z,101875.17
2018-09-11T11:06:08.307Z,101880.08
2018-09-11T11:08:37.710Z,101873.37
2018-09-11T11:11:07.247Z,101876.84
2018-09-11T11:13:36.618Z,101886.75
2018-09-11T11:16:06.586Z,101890.13
2018-09-11T11:18:36.155Z,101901.81
2018-09-11T11:21:06.240Z,101889.53
2018-09-11T11:23:35.703Z,101899.44
2018-09-11T11:26:06.270Z,101899.30
2018-09-11T11:28:35.665Z,101893.16
2018-09-11T11:31:06.447Z,101898.92
2018-09-11T11:33:35.969Z,101898.09
2018-09-11T11:36:06.456Z,101899.89
2018-09-11T11:38:35.890Z,101898.56
2018-09-11T11:41:07.095Z,101901.63
2018-09-11T11:43:36.554Z,101904.80
2018-09-11T11:46:06.734Z,101908.40
2018-09-11T11:48:36.291Z,101904.89
2018-09-11T11:51:06.214Z,101900.39
2018-09-11T11:53:35.561Z,101889.45
2018-09-11T11:56:06.857Z,101895.03
2018-09-11T11:58:36.281Z,101896.61
2018-09-11T12:01:06.436Z,101882.66
2018-09-11T12:03:36.380Z,101895.20
2018-09-11T12:06:06.436Z,101901.37
2018-09-11T12:08:35.890Z,101897.50
2018-09-11T12:11:06.251Z,101898.00
2018-09-11T12:13:35.938Z,101897.23
2018-09-11T12:16:06.861Z,101891.47
2018-09-11T12:18:36.232Z,101885.55
2018-09-11T12:21:07.470Z,101888.56
2018-09-11T12:23:37.822Z,101897.87
2018-09-11T12:26:07.247Z,101903.94
2018-09-11T12:28:36.876Z,101909.24
2018-09-11T12:31:06.508Z,101905.41
2018-09-11T12:33:36.625Z,101905.95
2018-09-11T12:36:06.470Z,101914.56
2018-09-11T12:38:38.038Z,101912.83
2018-09-11T12:41:08.490Z,101920.83
2018-09-11T12:43:37.881Z,101923.03
2018-09-11T12:46:07.587Z,101932.34
2018-09-11T12:48:40.104Z,101931.55
2018-09-11T12:51:12.812Z,101938.25
2018-09-11T12:53:45.406Z,101929.47
2018-09-11T12:56:14.923Z,101936.14
2018-09-11T12:58:47.267Z,101931.87
2018-09-11T13:01:20.789Z,101919.45
2018-09-11T13:03:53.174Z,101928.80
2018-09-11T13:06:22.638Z,101944.94
2018-09-11T13:08:52.122Z,101936.09
2018-09-11T13:11:21.512Z,101928.22
2018-09-11T13:13:50.946Z,101922.58
2018-09-11T13:16:20.322Z,101930.14
2018-09-11T13:18:49.758Z,101939.92
2018-09-11T13:24:01.984Z,101947.24
2018-09-11T13:26:31.586Z,101928.66
2018-09-11T13:29:00.971Z,101958.00
2018-09-11T13:31:30.347Z,101921.49
2018-09-11T13:33:59.715Z,101932.97
2018-09-11T13:36:29.136Z,101932.91
2018-09-11T13:38:58.812Z,101915.97
2018-09-11T13:41:28.211Z,101934.12
2018-09-11T13:43:57.634Z,101933.98
2018-09-11T13:46:27.166Z,101937.96
2018-09-11T13:48:56.532Z,101935.30
2018-09-11T13:51:25.953Z,101924.09
2018-09-11T13:53:55.357Z,101934.36
2018-09-11T13:56:24.719Z,101933.86
2018-09-11T13:58:54.171Z,101934.67
2018-09-11T14:01:23.687Z,101924.89
2018-09-11T14:03:53.112Z,101919.16
2018-09-11T14:06:22.514Z,101925.83
2018-09-11T14:08:51.986Z,101927.06
2018-09-11T14:11:21.548Z,101920.02
2018-09-11T14:13:51.061Z,101930.53
2018-09-11T14:16:20.478Z,101936.38
2018-09-11T14:18:50.067Z,101926.97
2018-09-11T14:21:19.515Z,101931.34
2018-09-11T14:23:49.033Z,101931.87
2018-09-11T14:26:18.528Z,101946.98
2018-09-11T14:28:47.904Z,101937.34
2018-09-11T14:31:17.453Z,101937.87
2018-09-11T14:33:46.926Z,101937.96
2018-09-11T14:36:20.977Z,101938.89
2018-09-11T14:38:50.446Z,101945.16
2018-09-11T14:41:20.092Z,101933.25
2018-09-11T14:43:49.552Z,101948.92
2018-09-11T14:46:19.021Z,101939.02
2018-09-11T14:48:48.622Z,101935.08
2018-09-11T14:51:18.110Z,101945.31
2018-09-11T14:53:48.200Z,101922.20
2018-09-11T14:56:17.741Z,101934.64
2018-09-11T14:58:47.326Z,101931.48
2018-09-11T15:01:20.415Z,101933.65
2018-09-11T15:03:50.096Z,101926.02
2018-09-11T15:06:19.758Z,101928.92
2018-09-11T15:08:49.325Z,101924.30
2018-09-11T15:11:19.287Z,101921.09
2018-09-11T15:13:50.160Z,101919.73
2018-09-11T15:16:20.330Z,101913.55
2018-09-11T15:18:50.929Z,101917.46
2018-09-11T15:21:22.417Z,101920.50
2018-09-11T15:23:52.334Z,101919.62
2018-09-11T15:26:23.487Z,101913.45
2018-09-11T15:28:53.339Z,101919.33
2018-09-11T15:31:23.137Z,101918.95
2018-09-11T15:33:53.189Z,101925.70
2018-09-11T15:36:23.088Z,101932.50
2018-09-11T15:38:52.890Z,101929.89
2018-09-11T15:41:22.731Z,101939.70
2018-09-11T15:43:52.298Z,101937.03
2018-09-11T15:46:21.678Z,101942.47
2018-09-11T15:48:51.170Z,101943.83
2018-09-11T15:51:20.700Z,101942.16
2018-09-11T15:53:50.126Z,101940.91
2018-09-11T15:56:19.629Z,101945.41
2018-09-11T15:58:49.085Z,101944.57
2018-09-11T16:01:18.503Z,101950.28
2018-09-11T16:03:47.879Z,101949.88
2018-09-11T16:06:17.446Z,101943.23
2018-09-11T16:08:46.857Z,101954.90
2018-09-11T16:11:16.522Z,101947.89
2018-09-11T16:13:46.586Z,101958.56
2018-09-11T16:16:16.428Z,101948.45
2018-09-11T16:18:45.861Z,101950.24
2018-09-11T16:21:15.268Z,101950.36
2018-09-11T16:23:44.710Z,101947.73
2018-09-11T16:26:14.090Z,101952.10
2018-09-11T16:28:44.465Z,101938.80
2018-09-11T16:31:13.894Z,101941.55
2018-09-11T16:33:43.376Z,101934.98
2018-09-11T16:36:12.811Z,101938.54
2018-09-11T16:38:42.263Z,101932.80
2018-09-11T16:41:11.722Z,101935.13
2018-09-11T16:43:42.908Z,101934.28
2018-09-11T16:46:12.444Z,101943.70
2018-09-11T16:48:41.997Z,101933.94
2018-09-11T16:51:11.563Z,101933.09
2018-09-11T16:53:41.131Z,101922.87
2018-09-11T16:56:10.688Z,101917.53
2018-09-11T16:58:40.244Z,101918.87
2018-09-11T17:01:09.804Z,101905.19
2018-09-11T17:03:39.234Z,101919.27
2018-09-11T17:06:08.727Z,101914.38
2018-09-11T17:08:41.645Z,101922.31
2018-09-11T17:11:11.051Z,101907.27
2018-09-11T17:13:40.830Z,101914.40
2018-09-11T17:16:10.396Z,101910.03
2018-09-11T17:18:39.920Z,101914.08
2018-09-11T17:23:38.812Z,101909.28
2018-09-11T17:26:08.312Z,101907.05
2018-09-11T17:28:38.592Z,101909.30
2018-09-11T17:31:08.004Z,101907.61
2018-09-11T17:33:38.244Z,101911.67
2018-09-11T17:36:08.238Z,101913.50
2018-09-11T17:38:37.873Z,101908.66
2018-09-11T17:41:07.486Z,101913.55
2018-09-11T17:43:37.219Z,101909.18
2018-09-11T17:46:06.832Z,101912.34
2018-09-11T17:48:36.579Z,101924.30
2018-09-11T17:51:06.590Z,101919.00
2018-09-11T17:53:36.547Z,101921.27
2018-09-11T17:56:07.261Z,101920.39
2018-09-11T17:58:37.076Z,101922.16
2018-09-11T18:01:07.447Z,101918.59
2018-09-11T18:03:36.904Z,101921.28
2018-09-11T18:06:06.816Z,101925.28
2018-09-11T18:08:36.302Z,101915.09
2018-09-11T18:11:06.184Z,101915.49
2018-09-11T18:13:35.588Z,101913.30
2018-09-11T18:21:06.308Z,101911.09
2018-09-11T18:23:35.985Z,101926.95
2018-09-11T18:26:06.408Z,101929.09
2018-09-11T18:28:35.970Z,101926.81
2018-09-11T18:31:06.437Z,101933.88
2018-09-11T18:33:36.113Z,101939.21
2018-09-11T18:36:06.713Z,101951.64
2018-09-11T18:38:36.480Z,101953.87
2018-09-11T18:41:06.679Z,101948.14
2018-09-11T18:43:36.297Z,101957.92
2018-09-11T18:46:07.224Z,101958.36
2018-09-11T18:48:36.842Z,101964.15
2018-09-11T18:51:07.575Z,101970.34
2018-09-11T18:53:37.269Z,101968.59
2018-09-11T18:56:09.130Z,101967.69
2018-09-11T18:58:38.847Z,101969.50
2018-09-11T19:01:08.560Z,101963.77
2018-09-11T19:03:38.420Z,101954.93
2018-09-11T19:06:08.137Z,101958.57
2018-09-11T19:08:37.837Z,101957.32
2018-09-11T19:11:07.612Z,101953.89
2018-09-11T19:13:37.308Z,101964.66
2018-09-11T19:16:07.125Z,101970.52
2018-09-11T19:18:36.935Z,101968.44
2018-09-11T19:21:06.584Z,101964.11
2018-09-11T19:23:36.357Z,101965.97
2018-09-11T19:26:06.674Z,101967.38
2018-09-11T19:28:36.322Z,101964.72
2018-09-11T19:31:06.703Z,101954.47
2018-09-11T19:33:37.004Z,101954.47
2018-09-11T19:36:15.894Z,101957.67
2018-09-11T19:38:45.742Z,101961.28
2018-09-11T19:41:18.505Z,101967.06
2018-09-11T19:43:48.901Z,101959.48
2018-09-11T19:46:18.639Z,101959.00
2018-09-11T19:48:48.602Z,101964.35
2018-09-11T19:51:18.715Z,101964.80
2018-09-11T19:53:49.011Z,101960.80
2018-09-11T19:56:18.655Z,101956.36
2018-09-11T20:01:21.084Z,101971.86
2018-09-11T20:03:50.885Z,101972.73
2018-09-11T20:06:20.627Z,101968.81
2018-09-11T20:08:50.263Z,101963.25
2018-09-11T20:11:19.979Z,101962.23
2018-09-11T20:16:33.877Z,101970.89
2018-09-11T20:19:03.785Z,101975.93
2018-09-11T20:21:33.745Z,101973.03
2018-09-11T20:24:03.380Z,101978.98
2018-09-11T20:26:33.429Z,101977.83
2018-09-11T20:29:03.314Z,101963.88
2018-09-11T20:31:33.117Z,101973.84
2018-09-11T20:34:02.785Z,101973.20
2018-09-11T20:36:32.696Z,101974.74
2018-09-11T20:39:02.484Z,101983.84
2018-09-11T20:44:13.171Z,101983.27
2018-09-11T20:46:43.075Z,101979.88
2018-09-11T20:49:12.779Z,101981.74
2018-09-11T20:51:42.495Z,101984.95
2018-09-11T20:54:12.189Z,101982.84
2018-09-11T20:56:41.904Z,101984.22
2018-09-11T20:59:11.710Z,101983.44
2018-09-11T21:01:41.469Z,101989.67
2018-09-11T21:04:11.118Z,101987.48
2018-09-11T21:06:41.493Z,101989.77
2018-09-11T21:09:11.533Z,101986.25
2018-09-11T21:11:41.363Z,101988.94
2018-09-11T21:14:11.073Z,101994.67
2018-09-11T21:16:40.688Z,101989.41
2018-09-11T21:19:10.301Z,101997.87
2018-09-11T21:21:39.677Z,101996.59
2018-09-11T21:24:09.051Z,102001.10
2018-09-11T21:26:38.419Z,102001.56
2018-09-11T21:29:07.844Z,102002.89
2018-09-11T21:31:37.356Z,102006.00
2018-09-11T21:34:06.873Z,102000.32
2018-09-11T21:36:36.306Z,101999.03
2018-09-11T21:41:45.859Z,102003.91
2018-09-11T21:44:15.268Z,102003.05
2018-09-11T21:46:44.660Z,102001.75
2018-09-11T21:49:14.023Z,101999.56
2018-09-11T21:51:44.374Z,102003.08
2018-09-11T21:54:14.301Z,102002.21
2018-09-11T21:56:43.972Z,102005.28
2018-09-11T21:59:13.728Z,101999.56
2018-09-11T22:01:48.924Z,102002.63
2018-09-11T22:04:18.318Z,102007.05
2018-09-11T22:06:47.665Z,102000.39
2018-09-11T22:09:17.064Z,102001.27
2018-09-11T22:11:46.462Z,101992.45
2018-09-11T22:14:15.787Z,101989.37
2018-09-11T22:16:45.123Z,101990.70
2018-09-11T22:19:14.536Z,101984.98
2018-09-11T22:21:43.867Z,101990.70
2018-09-11T22:24:13.231Z,101988.96
2018-09-11T22:26:42.591Z,101995.58
2018-09-11T22:29:11.967Z,102000.44
2018-09-11T22:31:41.315Z,102004.41
2018-09-11T22:34:10.669Z,101993.84
2018-09-11T22:36:40.029Z,102000.39
2018-09-11T22:39:09.886Z,101996.00
2018-09-11T22:41:39.297Z,102000.43
2018-09-11T22:44:08.664Z,102001.30
2018-09-11T22:46:38.842Z,101996.45
2018-09-11T22:49:08.179Z,101999.11
2018-09-11T22:51:37.524Z,101997.36
2018-09-11T22:54:06.923Z,102000.50
2018-09-11T22:56:36.284Z,101998.34
2018-09-11T22:59:06.175Z,101991.75
2018-09-11T23:01:40.224Z,101995.30
2018-09-11T23:04:09.568Z,101999.73
2018-09-11T23:06:39.096Z,101989.13
2018-09-11T23:09:09.843Z,101985.61
2018-09-11T23:11:39.188Z,101997.11
2018-09-11T23:14:15.878Z,101981.64
2018-09-11T23:16:52.558Z,101988.19
2018-09-11T23:19:28.725Z,101993.52
2018-09-11T23:22:06.219Z,101988.67
2018-09-11T23:24:44.047Z,101990.45
2018-09-11T23:27:21.468Z,101993.14
2018-09-11T23:30:00.183Z,101997.14
2018-09-11T23:32:36.083Z,101985.28
2018-09-11T23:35:12.287Z,101980.42
2018-09-11T23:37:49.714Z,101982.66
2018-09-11T23:40:28.566Z,101982.66
2018-09-11T23:43:06.093Z,101971.61
2018-09-11T23:45:42.739Z,101981.75
2018-09-11T23:48:17.260Z,101975.13
2018-09-11T23:50:51.619Z,101981.33
2018-09-11T23:53:28.189Z,101980.45
2018-09-11T23:56:05.373Z,101982.67
2018-09-11T23:58:43.510Z,101973.45
